sensor_id;sensor_type;location;lat;lon;timestamp;pressure;altitude;pressure_sealevel;temperature;humidity
17855;BME280;9053;53.358;6.382;2023-11-21T00:01:53;100860.88;;;11.86;100.00
17855;BME280;9053;53.358;6.382;2023-11-21T00:04:24;100863.63;;;11.89;100.00
17855;BME280;9053;53.358;6.382;2023-11-21T00:06:55;100863.72;;;11.92;100.00
17855;BME280;9053;53.358;6.382;2023-11-21T00:09:25;100855.03;;;11.95;100.00
17855;BME280;9053;53.358;6.382;2023-11-21T00:11:55;100866.53;;;11.98;100.00
17855;BME280;9053;53.358;6.382;2023-11-21T00:14:28;100859.56;;;12.00;100.00
17855;BME280;9053;53.358;6.382;2023-11-21T00:16:59;100865.72;;;12.01;100.00
17855;BME280;9053;53.358;6.382;2023-11-21T00:19:29;100864.06;;;12.04;100.00
17855;BME280;9053;53.358;6.382;2023-11-21T00:22:00;100859.59;;;12.02;100.00
17855;BME280;9053;53.358;6.382;2023-11-21T00:24:30;100861.38;;;12.03;100.00
17855;BME280;9053;53.358;6.382;2023-11-21T00:27:01;100865.81;;;12.04;100.00
17855;BME280;9053;53.358;6.382;2023-11-21T00:29:33;100867.59;;;12.05;100.00
17855;BME280;9053;53.358;6.382;2023-11-21T00:32:05;100870.25;;;12.06;100.00
17855;BME280;9053;53.358;6.382;2023-11-21T00:34:35;100865.94;;;12.08;100.00
17855;BME280;9053;53.358;6.382;2023-11-21T00:37:05;100874.72;;;12.09;100.00
17855;BME280;9053;53.358;6.382;2023-11-21T00:39:35;100868.50;;;12.07;100.00
17855;BME280;9053;53.358;6.382;2023-11-21T00:42:06;100872.97;;;12.09;100.00
17855;BME280;9053;53.358;6.382;2023-11-21T00:44:40;100873.09;;;12.12;100.00
17855;BME280;9053;53.358;6.382;2023-11-21T00:47:10;100879.31;;;12.16;100.00
17855;BME280;9053;53.358;6.382;2023-11-21T00:49:40;100879.38;;;12.18;100.00
17855;BME280;9053;53.358;6.382;2023-11-21T00:52:10;100881.16;;;12.19;100.00
17855;BME280;9053;53.358;6.382;2023-11-21T00:54:40;100884.75;;;12.21;100.00
17855;BME280;9053;53.358;6.382;2023-11-21T00:57:11;100888.31;;;12.23;100.00
17855;BME280;9053;53.358;6.382;2023-11-21T00:59:44;100887.50;;;12.25;100.00
17855;BME280;9053;53.358;6.382;2023-11-21T01:02:14;100898.13;;;12.28;100.00
17855;BME280;9053;53.358;6.382;2023-11-21T01:04:44;100901.78;;;12.33;100.00
17855;BME280;9053;53.358;6.382;2023-11-21T01:07:14;100900.09;;;12.36;100.00
17855;BME280;9053;53.358;6.382;2023-11-21T01:09:48;100908.97;;;12.39;100.00
17855;BME280;9053;53.358;6.382;2023-11-21T01:12:18;100913.44;;;12.42;100.00
17855;BME280;9053;53.358;6.382;2023-11-21T01:14:50;100917.91;;;12.44;100.00
17855;BME280;9053;53.358;6.382;2023-11-21T01:17:20;100921.47;;;12.46;100.00
17855;BME280;9053;53.358;6.382;2023-11-21T01:19:51;100931.22;;;12.49;100.00
17855;BME280;9053;53.358;6.382;2023-11-21T01:22:21;100942.72;;;12.51;100.00
17855;BME280;9053;53.358;6.382;2023-11-21T01:24:53;100936.63;;;12.53;100.00
17855;BME280;9053;53.358;6.382;2023-11-21T01:27:23;100944.59;;;12.55;100.00
17855;BME280;9053;53.358;6.382;2023-11-21T01:29:56;100942.88;;;12.57;100.00
17855;BME280;9053;53.358;6.382;2023-11-21T01:32:26;100949.06;;;12.58;100.00
17855;BME280;9053;53.358;6.382;2023-11-21T01:34:56;100954.34;;;12.58;100.00
17855;BME280;9053;53.358;6.382;2023-11-21T01:37:23;100967.56;;;12.59;100.00
17855;BME280;9053;53.358;6.382;2023-11-21T01:39:55;100964.06;;;12.60;100.00
17855;BME280;9053;53.358;6.382;2023-11-21T01:42:26;100971.06;;;12.60;100.00
17855;BME280;9053;53.358;6.382;2023-11-21T01:44:58;100961.31;;;12.57;100.00
17855;BME280;9053;53.358;6.382;2023-11-21T01:47:29;100975.31;;;12.53;100.00
17855;BME280;9053;53.358;6.382;2023-11-21T01:50:00;100980.50;;;12.50;100.00
17855;BME280;9053;53.358;6.382;2023-11-21T01:52:31;100981.34;;;12.49;100.00
17855;BME280;9053;53.358;6.382;2023-11-21T01:55:02;100984.84;;;12.48;100.00
17855;BME280;9053;53.358;6.382;2023-11-21T01:57:33;100984.66;;;12.42;100.00
17855;BME280;9053;53.358;6.382;2023-11-21T02:00:08;100982.78;;;12.38;100.00
17855;BME280;9053;53.358;6.382;2023-11-21T02:02:47;100990.56;;;12.33;100.00
17855;BME280;9053;53.358;6.382;2023-11-21T02:05:18;100997.47;;;12.29;100.00
17855;BME280;9053;53.358;6.382;2023-11-21T02:07:49;101003.47;;;12.24;100.00
17855;BME280;9053;53.358;6.382;2023-11-21T02:10:19;101010.41;;;12.20;100.00
17855;BME280;9053;53.358;6.382;2023-11-21T02:12:51;101018.31;;;12.20;100.00
17855;BME280;9053;53.358;6.382;2023-11-21T02:15:25;101021.75;;;12.18;100.00
17855;BME280;9053;53.358;6.382;2023-11-21T02:17:56;101032.22;;;12.15;100.00
17855;BME280;9053;53.358;6.382;2023-11-21T02:20:27;101035.69;;;12.13;100.00
17855;BME280;9053;53.358;6.382;2023-11-21T02:23:01;101038.22;;;12.10;100.00
17855;BME280;9053;53.358;6.382;2023-11-21T02:25:32;101043.34;;;12.06;100.00
17855;BME280;9053;53.358;6.382;2023-11-21T02:28:04;101047.59;;;12.01;100.00
17855;BME280;9053;53.358;6.382;2023-11-21T02:30:34;101045.66;;;11.95;100.00
17855;BME280;9053;53.358;6.382;2023-11-21T02:33:04;101047.28;;;11.91;100.00
17855;BME280;9053;53.358;6.382;2023-11-21T02:35:34;101046.31;;;11.88;100.00
17855;BME280;9053;53.358;6.382;2023-11-21T02:38:07;101052.44;;;11.87;100.00
17855;BME280;9053;53.358;6.382;2023-11-21T02:40:37;101053.22;;;11.84;100.00
17855;BME280;9053;53.358;6.382;2023-11-21T02:43:07;101053.06;;;11.80;100.00
17855;BME280;9053;53.358;6.382;2023-11-21T02:45:37;101055.47;;;11.74;100.00
17855;BME280;9053;53.358;6.382;2023-11-21T02:48:08;101060.59;;;11.69;100.00
17855;BME280;9053;53.358;6.382;2023-11-21T02:50:38;101063.13;;;11.66;100.00
17855;BME280;9053;53.358;6.382;2023-11-21T02:53:13;101072.03;;;11.69;100.00
17855;BME280;9053;53.358;6.382;2023-11-21T02:55:43;101085.22;;;11.69;100.00
17855;BME280;9053;53.358;6.382;2023-11-21T02:58:13;101081.53;;;11.64;100.00
17855;BME280;9053;53.358;6.382;2023-11-21T03:00:43;101082.44;;;11.65;100.00
17855;BME280;9053;53.358;6.382;2023-11-21T03:03:13;101085.09;;;11.66;100.00
17855;BME280;9053;53.358;6.382;2023-11-21T03:05:44;101081.53;;;11.64;100.00
17855;BME280;9053;53.358;6.382;2023-11-21T03:08:16;101091.16;;;11.64;100.00
17855;BME280;9053;53.358;6.382;2023-11-21T03:10:46;101090.38;;;11.66;100.00
17855;BME280;9053;53.358;6.382;2023-11-21T03:13:16;101090.38;;;11.66;100.00
17855;BME280;9053;53.358;6.382;2023-11-21T03:15:46;101092.34;;;11.72;100.00
17855;BME280;9053;53.358;6.382;2023-11-21T03:18:16;101095.53;;;11.63;100.00
17855;BME280;9053;53.358;6.382;2023-11-21T03:20:49;101099.03;;;11.62;100.00
17855;BME280;9053;53.358;6.382;2023-11-21T03:23:21;101099.84;;;11.61;100.00
17855;BME280;9053;53.358;6.382;2023-11-21T03:25:51;101102.56;;;11.63;100.00
17855;BME280;9053;53.358;6.382;2023-11-21T03:28:21;101103.41;;;11.62;100.00
17855;BME280;9053;53.358;6.382;2023-11-21T03:30:51;101107.88;;;11.64;100.00
17855;BME280;9053;53.358;6.382;2023-11-21T03:33:21;101112.22;;;11.64;100.00
17855;BME280;9053;53.358;6.382;2023-11-21T03:35:51;101116.72;;;11.66;100.00
17855;BME280;9053;53.358;6.382;2023-11-21T03:38:25;101122.09;;;11.69;100.00
17855;BME280;9053;53.358;6.382;2023-11-21T03:40:55;101120.19;;;11.65;100.00
17855;BME280;9053;53.358;6.382;2023-11-21T03:43:25;101120.13;;;11.64;100.00
17855;BME280;9053;53.358;6.382;2023-11-21T03:45:55;101122.84;;;11.65;100.00
17855;BME280;9053;53.358;6.382;2023-11-21T03:48:25;101131.63;;;11.66;100.00
17855;BME280;9053;53.358;6.382;2023-11-21T03:50:55;101133.38;;;11.65;100.00
17855;BME280;9053;53.358;6.382;2023-11-21T03:53:27;101134.09;;;11.61;100.00
17855;BME280;9053;53.358;6.382;2023-11-21T03:55:57;101140.94;;;11.56;100.00
17855;BME280;9053;53.358;6.382;2023-11-21T03:58:28;101146.88;;;11.49;100.00
17855;BME280;9053;53.358;6.382;2023-11-21T04:00:58;101153.75;;;11.45;100.00
17855;BME280;9053;53.358;6.382;2023-11-21T04:03:28;101153.69;;;11.44;100.00
17855;BME280;9053;53.358;6.382;2023-11-21T04:05:58;101165.16;;;11.44;100.00
17855;BME280;9053;53.358;6.382;2023-11-21T04:08:31;101162.00;;;11.31;100.00
17855;BME280;9053;53.358;6.382;2023-11-21T04:11:01;101172.44;;;11.27;100.00
17855;BME280;9053;53.358;6.382;2023-11-21T04:13:31;101175.00;;;11.26;100.00
17855;BME280;9053;53.358;6.382;2023-11-21T04:16:01;101181.72;;;11.18;100.00
17855;BME280;9053;53.358;6.382;2023-11-21T04:18:31;101188.75;;;11.17;100.00
17855;BME280;9053;53.358;6.382;2023-11-21T04:21:01;101199.16;;;11.14;100.00
17855;BME280;9053;53.358;6.382;2023-11-21T04:23:34;101201.53;;;11.08;100.00
17855;BME280;9053;53.358;6.382;2023-11-21T04:26:04;101209.34;;;11.05;100.00
17855;BME280;9053;53.358;6.382;2023-11-21T04:28:35;101220.03;;;11.10;100.00
17855;BME280;9053;53.358;6.382;2023-11-21T04:31:05;101221.31;;;10.97;100.00
17855;BME280;9053;53.358;6.382;2023-11-21T04:33:35;101226.09;;;10.85;100.00
17855;BME280;9053;53.358;6.382;2023-11-21T04:36:06;101242.75;;;10.83;100.00
17855;BME280;9053;53.358;6.382;2023-11-21T04:38:38;101238.66;;;10.92;100.00
17855;BME280;9053;53.358;6.382;2023-11-21T04:41:09;101242.88;;;10.88;100.00
17855;BME280;9053;53.358;6.382;2023-11-21T04:43:37;101255.72;;;10.79;100.00
17855;BME280;9053;53.358;6.382;2023-11-21T04:46:07;101259.81;;;10.72;100.00
17855;BME280;9053;53.358;6.382;2023-11-21T04:48:37;101260.66;;;10.71;100.00
17855;BME280;9053;53.358;6.382;2023-11-21T04:51:07;101259.22;;;10.79;100.00
17855;BME280;9053;53.358;6.382;2023-11-21T04:53:41;101273.03;;;10.74;100.00
17855;BME280;9053;53.358;6.382;2023-11-21T04:56:11;101279.66;;;10.64;100.00
17855;BME280;9053;53.358;6.382;2023-11-21T04:58:41;101282.72;;;10.75;100.00
17855;BME280;9053;53.358;6.382;2023-11-21T05:01:11;101283.50;;;10.72;100.00
17855;BME280;9053;53.358;6.382;2023-11-21T05:03:41;101297.66;;;10.76;100.00
17855;BME280;9053;53.358;6.382;2023-11-21T05:06:11;101303.25;;;10.83;100.00
17855;BME280;9053;53.358;6.382;2023-11-21T05:08:44;101315.69;;;10.88;100.00
17855;BME280;9053;53.358;6.382;2023-11-21T05:11:23;101320.94;;;10.88;100.00
17855;BME280;9053;53.358;6.382;2023-11-21T05:13:53;101329.81;;;10.90;100.00
17855;BME280;9053;53.358;6.382;2023-11-21T05:16:25;101330.97;;;10.75;100.00
17855;BME280;9053;53.358;6.382;2023-11-21T05:18:55;101342.34;;;10.74;100.00
17855;BME280;9053;53.358;6.382;2023-11-21T05:21:28;101338.03;;;10.76;100.00
17855;BME280;9053;53.358;6.382;2023-11-21T05:24:02;101355.06;;;10.64;100.00
17855;BME280;9053;53.358;6.382;2023-11-21T05:26:33;101352.53;;;10.46;100.00
17855;BME280;9053;53.358;6.382;2023-11-21T05:29:03;101356.44;;;10.34;100.00
17855;BME280;9053;53.358;6.382;2023-11-21T05:31:33;101359.19;;;10.37;100.00
17855;BME280;9053;53.358;6.382;2023-11-21T05:34:04;101357.41;;;10.36;100.00
17855;BME280;9053;53.358;6.382;2023-11-21T05:36:34;101361.13;;;10.42;100.00
17855;BME280;9053;53.358;6.382;2023-11-21T05:39:06;101370.50;;;10.56;100.00
17855;BME280;9053;53.358;6.382;2023-11-21T05:41:38;101370.81;;;10.43;100.00
17855;BME280;9053;53.358;6.382;2023-11-21T05:44:08;101378.81;;;10.46;100.00
17855;BME280;9053;53.358;6.382;2023-11-21T05:46:39;101381.13;;;10.38;100.00
17855;BME280;9053;53.358;6.382;2023-11-21T05:49:10;101386.19;;;10.14;100.00
17855;BME280;9053;53.358;6.382;2023-11-21T05:51:40;101395.81;;;10.13;100.00
17855;BME280;9053;53.358;6.382;2023-11-21T05:54:15;101398.00;;;10.24;100.00
17855;BME280;9053;53.358;6.382;2023-11-21T05:56:45;101405.81;;;10.22;100.00
17855;BME280;9053;53.358;6.382;2023-11-21T05:59:15;101408.19;;;10.16;100.00
17855;BME280;9053;53.358;6.382;2023-11-21T06:01:49;101417.22;;;10.23;100.00
17855;BME280;9053;53.358;6.382;2023-11-21T06:04:20;101414.59;;;10.23;100.00
17855;BME280;9053;53.358;6.382;2023-11-21T06:06:52;101413.28;;;10.13;100.00
17855;BME280;9053;53.358;6.382;2023-11-21T06:09:24;101419.81;;;10.02;100.00
17855;BME280;9053;53.358;6.382;2023-11-21T06:11:54;101416.41;;;10.04;100.00
17855;BME280;9053;53.358;6.382;2023-11-21T06:14:25;101421.03;;;10.10;100.00
17855;BME280;9053;53.358;6.382;2023-11-21T06:16:55;101428.38;;;10.17;100.00
17855;BME280;9053;53.358;6.382;2023-11-21T06:19:25;101431.50;;;10.08;100.00
17855;BME280;9053;53.358;6.382;2023-11-21T06:21:55;101438.19;;;10.02;100.00
17855;BME280;9053;53.358;6.382;2023-11-21T06:24:28;101447.69;;;9.98;100.00
17855;BME280;9053;53.358;6.382;2023-11-21T06:26:58;101448.72;;;10.02;100.00
17855;BME280;9053;53.358;6.382;2023-11-21T06:29:28;101443.66;;;10.06;100.00
17855;BME280;9053;53.358;6.382;2023-11-21T06:31:58;101446.56;;;10.12;100.00
17855;BME280;9053;53.358;6.382;2023-11-21T06:34:31;101464.28;;;10.16;100.00
17855;BME280;9053;53.358;6.382;2023-11-21T06:37:01;101460.81;;;10.17;100.00
17855;BME280;9053;53.358;6.382;2023-11-21T06:39:34;101471.19;;;10.14;100.00
17855;BME280;9053;53.358;6.382;2023-11-21T06:42:05;101476.22;;;10.10;100.00
17855;BME280;9053;53.358;6.382;2023-11-21T06:44:35;101483.09;;;10.06;100.00
17855;BME280;9053;53.358;6.382;2023-11-21T06:47:06;101490.97;;;10.06;100.00
17855;BME280;9053;53.358;6.382;2023-11-21T06:49:36;101491.72;;;10.04;100.00
17855;BME280;9053;53.358;6.382;2023-11-21T06:52:06;101503.34;;;10.09;100.00
17855;BME280;9053;53.358;6.382;2023-11-21T06:54:39;101505.53;;;10.00;100.00
17855;BME280;9053;53.358;6.382;2023-11-21T06:57:09;101515.66;;;9.90;100.00
17855;BME280;9053;53.358;6.382;2023-11-21T06:59:39;101521.72;;;9.71;100.00
17855;BME280;9053;53.358;6.382;2023-11-21T07:02:09;101531.22;;;9.68;100.00
17855;BME280;9053;53.358;6.382;2023-11-21T07:04:41;101542.88;;;9.74;100.00
17855;BME280;9053;53.358;6.382;2023-11-21T07:07:12;101536.00;;;9.77;100.00
17855;BME280;9053;53.358;6.382;2023-11-21T07:09:44;101546.41;;;9.75;100.00
17855;BME280;9053;53.358;6.382;2023-11-21T07:12:15;101554.28;;;9.57;100.00
17855;BME280;9053;53.358;6.382;2023-11-21T07:14:46;101552.78;;;9.62;100.00
17855;BME280;9053;53.358;6.382;2023-11-21T07:17:16;101554.47;;;9.60;100.00
17855;BME280;9053;53.358;6.382;2023-11-21T07:19:46;101558.03;;;9.62;100.00
17855;BME280;9053;53.358;6.382;2023-11-21T07:22:17;101562.56;;;9.65;100.00
17855;BME280;9053;53.358;6.382;2023-11-21T07:24:51;101570.38;;;9.63;100.00
17855;BME280;9053;53.358;6.382;2023-11-21T07:27:21;101567.00;;;9.48;100.00
17855;BME280;9053;53.358;6.382;2023-11-21T07:29:51;101573.13;;;9.48;100.00
17855;BME280;9053;53.358;6.382;2023-11-21T07:32:21;101575.09;;;9.52;100.00
17855;BME280;9053;53.358;6.382;2023-11-21T07:34:52;101583.28;;;9.59;100.00
17855;BME280;9053;53.358;6.382;2023-11-21T07:37:24;101587.16;;;9.67;100.00
17855;BME280;9053;53.358;6.382;2023-11-21T07:39:58;101592.41;;;9.67;100.00
17855;BME280;9053;53.358;6.382;2023-11-21T07:42:29;101608.19;;;9.67;100.00
17855;BME280;9053;53.358;6.382;2023-11-21T07:45:00;101606.53;;;9.69;100.00
17855;BME280;9053;53.358;6.382;2023-11-21T07:47:29;101616.22;;;9.70;100.00
17855;BME280;9053;53.358;6.382;2023-11-21T07:50:05;101625.41;;;9.78;100.00
17855;BME280;9053;53.358;6.382;2023-11-21T07:52:36;101629.66;;;9.76;100.00
17855;BME280;9053;53.358;6.382;2023-11-21T07:55:09;101637.91;;;9.66;100.00
17855;BME280;9053;53.358;6.382;2023-11-21T07:57:39;101639.19;;;9.74;100.00
17855;BME280;9053;53.358;6.382;2023-11-21T08:00:11;101642.47;;;9.70;100.00
17855;BME280;9053;53.358;6.382;2023-11-21T08:02:42;101646.09;;;9.72;100.00
17855;BME280;9053;53.358;6.382;2023-11-21T08:05:13;101645.09;;;9.70;100.00
17855;BME280;9053;53.358;6.382;2023-11-21T08:07:54;101643.47;;;9.72;100.00
17855;BME280;9053;53.358;6.382;2023-11-21T08:10:26;101656.69;;;9.73;100.00
17855;BME280;9053;53.358;6.382;2023-11-21T08:12:57;101662.16;;;9.78;100.00
17855;BME280;9053;53.358;6.382;2023-11-21T08:15:27;101664.63;;;9.75;100.00
17855;BME280;9053;53.358;6.382;2023-11-21T08:17:58;101684.13;;;9.80;100.00
17855;BME280;9053;53.358;6.382;2023-11-21T08:20:28;101672.16;;;9.85;100.00
17855;BME280;9053;53.358;6.382;2023-11-21T08:22:59;101681.31;;;9.93;100.00
17855;BME280;9053;53.358;6.382;2023-11-21T08:25:32;101686.34;;;9.89;100.00
17855;BME280;9053;53.358;6.382;2023-11-21T08:28:02;101688.38;;;9.94;100.00
17855;BME280;9053;53.358;6.382;2023-11-21T08:30:32;101693.78;;;9.97;100.00
17855;BME280;9053;53.358;6.382;2023-11-21T08:33:02;101691.97;;;9.96;100.00
17855;BME280;9053;53.358;6.382;2023-11-21T08:35:32;101695.41;;;9.78;100.00
17855;BME280;9053;53.358;6.382;2023-11-21T08:38:03;101706.84;;;9.78;100.00
17855;BME280;9053;53.358;6.382;2023-11-21T08:40:39;101706.75;;;9.77;100.00
17855;BME280;9053;53.358;6.382;2023-11-21T08:43:09;101706.84;;;9.78;100.00
17855;BME280;9053;53.358;6.382;2023-11-21T08:45:41;101720.78;;;9.77;100.00
17855;BME280;9053;53.358;6.382;2023-11-21T08:48:11;101730.81;;;9.68;100.00
17855;BME280;9053;53.358;6.382;2023-11-21T08:50:43;101730.81;;;9.68;100.00
17855;BME280;9053;53.358;6.382;2023-11-21T08:53:13;101740.00;;;9.60;100.00
17855;BME280;9053;53.358;6.382;2023-11-21T08:55:46;101744.38;;;9.59;100.00
17855;BME280;9053;53.358;6.382;2023-11-21T08:58:17;101743.78;;;9.65;100.00
17855;BME280;9053;53.358;6.382;2023-11-21T09:00:47;101744.13;;;9.54;100.00
17855;BME280;9053;53.358;6.382;2023-11-21T09:03:17;101753.88;;;9.57;100.00
17855;BME280;9053;53.358;6.382;2023-11-21T09:05:47;101747.59;;;9.53;100.00
17855;BME280;9053;53.358;6.382;2023-11-21T09:08:18;101749.41;;;9.38;100.00
17855;BME280;9053;53.358;6.382;2023-11-21T09:10:51;101754.41;;;9.50;100.00
17855;BME280;9053;53.358;6.382;2023-11-21T09:13:21;101754.97;;;9.61;100.00
17855;BME280;9053;53.358;6.382;2023-11-21T09:15:52;101757.75;;;9.47;100.00
17855;BME280;9053;53.358;6.382;2023-11-21T09:18:22;101766.88;;;9.38;100.00
17855;BME280;9053;53.358;6.382;2023-11-21T09:20:52;101781.72;;;9.37;100.00
17855;BME280;9053;53.358;6.382;2023-11-21T09:23:22;101788.22;;;9.44;100.00
17855;BME280;9053;53.358;6.382;2023-11-21T09:25:55;101786.72;;;9.49;100.00
17855;BME280;9053;53.358;6.382;2023-11-21T09:28:26;101798.72;;;9.44;100.00
17855;BME280;9053;53.358;6.382;2023-11-21T09:30:57;101802.72;;;9.53;100.00
17855;BME280;9053;53.358;6.382;2023-11-21T09:33:28;101813.06;;;9.34;100.00
17855;BME280;9053;53.358;6.382;2023-11-21T09:35:58;101806.28;;;9.06;100.00
17855;BME280;9053;53.358;6.382;2023-11-21T09:38:31;101816.09;;;8.94;100.00
17855;BME280;9053;53.358;6.382;2023-11-21T09:41:06;101820.25;;;9.05;100.00
17855;BME280;9053;53.358;6.382;2023-11-21T09:43:46;101825.50;;;9.05;100.00
17855;BME280;9053;53.358;6.382;2023-11-21T09:46:18;101827.03;;;9.02;100.00
17855;BME280;9053;53.358;6.382;2023-11-21T09:48:50;101832.13;;;8.99;100.00
17855;BME280;9053;53.358;6.382;2023-11-21T09:51:22;101837.63;;;9.03;100.00
17855;BME280;9053;53.358;6.382;2023-11-21T09:53:57;101843.41;;;9.13;100.00
17855;BME280;9053;53.358;6.382;2023-11-21T09:56:37;101852.84;;;9.25;100.00
17855;BME280;9053;53.358;6.382;2023-11-21T09:59:07;101843.94;;;9.38;100.00
17855;BME280;9053;53.358;6.382;2023-11-21T10:01:40;101853.47;;;9.52;100.00
17855;BME280;9053;53.358;6.382;2023-11-21T10:04:11;101851.47;;;9.48;100.00
17855;BME280;9053;53.358;6.382;2023-11-21T10:06:43;101859.34;;;9.48;100.00
17855;BME280;9053;53.358;6.382;2023-11-21T10:09:15;101861.88;;;9.30;100.00
17855;BME280;9053;53.358;6.382;2023-11-21T10:11:50;101873.91;;;9.27;100.00
17855;BME280;9053;53.358;6.382;2023-11-21T10:14:24;101877.56;;;9.14;100.00
17855;BME280;9053;53.358;6.382;2023-11-21T10:16:56;101875.94;;;9.16;100.00
17855;BME280;9053;53.358;6.382;2023-11-21T10:19:27;101889.97;;;9.17;100.00
17855;BME280;9053;53.358;6.382;2023-11-21T10:21:58;101884.25;;;9.24;100.00
17855;BME280;9053;53.358;6.382;2023-11-21T10:24:30;101893.13;;;9.26;100.00
17855;BME280;9053;53.358;6.382;2023-11-21T10:27:17;101897.50;;;9.42;100.00
17855;BME280;9053;53.358;6.382;2023-11-21T10:29:47;101906.31;;;9.59;100.00
17855;BME280;9053;53.358;6.382;2023-11-21T10:32:17;101906.00;;;9.52;100.00
17855;BME280;9053;53.358;6.382;2023-11-21T10:34:55;101909.13;;;9.30;100.00
17855;BME280;9053;53.358;6.382;2023-11-21T10:37:27;101905.72;;;9.48;100.00
17855;BME280;9053;53.358;6.382;2023-11-21T10:39:57;101916.22;;;9.64;100.00
17855;BME280;9053;53.358;6.382;2023-11-21T10:42:32;101920.50;;;9.62;100.00
17855;BME280;9053;53.358;6.382;2023-11-21T10:45:04;101924.00;;;9.46;100.00
17855;BME280;9053;53.358;6.382;2023-11-21T10:47:39;101912.81;;;9.34;100.00
17855;BME280;9053;53.358;6.382;2023-11-21T10:50:11;101916.50;;;9.52;100.00
17855;BME280;9053;53.358;6.382;2023-11-21T10:52:42;101927.00;;;9.69;100.00
17855;BME280;9053;53.358;6.382;2023-11-21T10:55:16;101927.50;;;9.78;100.00
17855;BME280;9053;53.358;6.382;2023-11-21T10:57:53;101931.63;;;9.73;100.00
17855;BME280;9053;53.358;6.382;2023-11-21T11:00:24;101941.03;;;9.53;100.00
17855;BME280;9053;53.358;6.382;2023-11-21T11:02:55;101944.81;;;9.58;100.00
17855;BME280;9053;53.358;6.382;2023-11-21T11:05:27;101940.84;;;9.50;100.00
17855;BME280;9053;53.358;6.382;2023-11-21T11:08:04;101944.97;;;9.61;100.00
17855;BME280;9053;53.358;6.382;2023-11-21T11:10:34;101952.13;;;9.64;100.00
17855;BME280;9053;53.358;6.382;2023-11-21T11:13:07;101957.88;;;9.73;100.00
17855;BME280;9053;53.358;6.382;2023-11-21T11:15:38;101954.44;;;9.74;100.00
17855;BME280;9053;53.358;6.382;2023-11-21T11:18:08;101952.31;;;9.83;100.00
17855;BME280;9053;53.358;6.382;2023-11-21T11:20:41;101958.97;;;9.93;100.00
17855;BME280;9053;53.358;6.382;2023-11-21T11:23:29;101968.66;;;9.94;100.00
17855;BME280;9053;53.358;6.382;2023-11-21T11:26:10;101970.38;;;9.93;99.92
17855;BME280;9053;53.358;6.382;2023-11-21T11:28:51;101967.28;;;10.01;99.99
17855;BME280;9053;53.358;6.382;2023-11-21T11:31:28;101969.47;;;9.93;99.75
17855;BME280;9053;53.358;6.382;2023-11-21T11:34:11;101983.09;;;10.02;99.82
17855;BME280;9053;53.358;6.382;2023-11-21T11:36:49;101974.47;;;10.05;99.73
17855;BME280;9053;53.358;6.382;2023-11-21T11:39:27;101990.19;;;10.19;99.58
17855;BME280;9053;53.358;6.382;2023-11-21T11:42:01;101980.97;;;10.11;99.07
17855;BME280;9053;53.358;6.382;2023-11-21T11:44:50;101985.25;;;10.09;98.70
17855;BME280;9053;53.358;6.382;2023-11-21T11:47:24;101991.66;;;10.14;98.59
17855;BME280;9053;53.358;6.382;2023-11-21T11:50:01;101991.41;;;10.10;98.69
17855;BME280;9053;53.358;6.382;2023-11-21T11:52:39;101992.50;;;10.13;98.65
17855;BME280;9053;53.358;6.382;2023-11-21T11:55:11;101998.97;;;10.20;98.69
17855;BME280;9053;53.358;6.382;2023-11-21T11:57:46;102007.59;;;10.17;98.48
17855;BME280;9053;53.358;6.382;2023-11-21T12:00:22;102006.84;;;10.20;98.31
17855;BME280;9053;53.358;6.382;2023-11-21T12:03:01;102016.22;;;10.15;97.95
17855;BME280;9053;53.358;6.382;2023-11-21T12:05:32;102017.84;;;10.13;97.90
17855;BME280;9053;53.358;6.382;2023-11-21T12:08:04;102015.22;;;10.13;97.83
17855;BME280;9053;53.358;6.382;2023-11-21T12:10:36;102013.94;;;10.21;98.04
17855;BME280;9053;53.358;6.382;2023-11-21T12:13:08;102024.09;;;10.15;97.89
17855;BME280;9053;53.358;6.382;2023-11-21T12:15:42;102020.25;;;10.08;97.61
17855;BME280;9053;53.358;6.382;2023-11-21T12:18:13;102022.28;;;9.97;97.66
17855;BME280;9053;53.358;6.382;2023-11-21T12:20:42;102022.16;;;9.80;97.56
17855;BME280;9053;53.358;6.382;2023-11-21T12:23:15;102020.25;;;9.77;97.81
17855;BME280;9053;53.358;6.382;2023-11-21T12:25:45;102018.06;;;9.85;98.42
17855;BME280;9053;53.358;6.382;2023-11-21T12:28:15;102026.72;;;9.99;98.99
17855;BME280;9053;53.358;6.382;2023-11-21T12:30:48;102022.78;;;9.90;99.28
17855;BME280;9053;53.358;6.382;2023-11-21T12:33:29;102024.25;;;9.85;99.93
17855;BME280;9053;53.358;6.382;2023-11-21T12:35:59;102029.16;;;9.79;100.00
17855;BME280;9053;53.358;6.382;2023-11-21T12:38:33;102028.09;;;9.75;100.00
17855;BME280;9053;53.358;6.382;2023-11-21T12:41:04;102031.00;;;9.65;100.00
17855;BME280;9053;53.358;6.382;2023-11-21T12:43:34;102032.25;;;9.72;100.00
17855;BME280;9053;53.358;6.382;2023-11-21T12:46:10;102035.00;;;9.59;100.00
17855;BME280;9053;53.358;6.382;2023-11-21T12:48:41;102040.78;;;9.68;100.00
17855;BME280;9053;53.358;6.382;2023-11-21T12:51:13;102053.66;;;9.63;100.00
17855;BME280;9053;53.358;6.382;2023-11-21T12:53:45;102053.94;;;9.53;100.00
17855;BME280;9053;53.358;6.382;2023-11-21T12:56:15;102062.00;;;9.56;100.00
17855;BME280;9053;53.358;6.382;2023-11-21T12:58:47;102063.44;;;9.66;100.00
17855;BME280;9053;53.358;6.382;2023-11-21T13:01:20;102061.53;;;9.63;100.00
17855;BME280;9053;53.358;6.382;2023-11-21T13:03:50;102060.28;;;9.57;100.00
17855;BME280;9053;53.358;6.382;2023-11-21T13:06:20;102064.53;;;9.54;100.00
17855;BME280;9053;53.358;6.382;2023-11-21T13:08:52;102078.03;;;9.61;100.00
17855;BME280;9053;53.358;6.382;2023-11-21T13:11:24;102079.56;;;9.57;100.00
17855;BME280;9053;53.358;6.382;2023-11-21T13:13:54;102081.09;;;9.53;100.00
17855;BME280;9053;53.358;6.382;2023-11-21T13:16:27;102068.97;;;9.56;100.00
17855;BME280;9053;53.358;6.382;2023-11-21T13:18:57;102086.47;;;9.55;100.00